JRH weather

Jorhat Airport
Jorhat, Assam, India

Public forecast

Using degrees Celsius for public forecast. Weather courtesy of forecast.io.

Closest aviation weather report (METAR) to Jorhat Airport

Closest report is Dibrugarh Airport, 63.7 nm (118.0 km) NE. Retrieved 2020/01/18 02:30 UTC (17 minutes ago):

VEMN 180230Z 03003KT 3000 BR FEW020 BKN100 16/14 Q1017 NOSIG

Aviation forecast (TAF) for Jorhat Airport

Forecast is more than 12 hours old.

Retrieved 2020/01/17 12:30 UTC (14 hours ago):

TAF VEJT 170930Z 1712/1724 VRB02KT 6000 FEW030 SCT100 BECMG 1713/1714 4000 BR BECMG 1715/1716 3000 BR BECMG 1718/1719 1500 BR BECMG 1722/1723 0800 FG